createdAt,value
2019-05-28T00:00:12.156Z,97.53
2019-05-28T00:02:41.677Z,98.42
2019-05-28T00:05:13.768Z,97.82
2019-05-28T00:07:43.213Z,98.15
2019-05-28T00:10:14.154Z,97.98
2019-05-28T00:12:43.815Z,97.98
2019-05-28T00:15:14.583Z,97.99
2019-05-28T00:17:44.033Z,98.36
2019-05-28T00:20:15.466Z,98.26
2019-05-28T00:22:45.337Z,98.29
2019-05-28T00:25:16.014Z,98.71
2019-05-28T00:27:45.593Z,98.72
2019-05-28T00:30:20.333Z,99.11
2019-05-28T00:32:46.636Z,99.01
2019-05-28T00:35:17.127Z,99.61
2019-05-28T00:37:46.574Z,99.13
2019-05-28T00:40:16.397Z,99.08
2019-05-28T00:42:45.949Z,99.30
2019-05-28T00:45:15.933Z,99.94
2019-05-28T00:47:45.399Z,100.00
2019-05-28T00:50:15.546Z,100.00
2019-05-28T00:52:45.097Z,100.00
2019-05-28T00:55:14.967Z,100.00
2019-05-28T00:57:47.470Z,100.00
2019-05-28T01:00:35.922Z,100.00
2019-05-28T01:02:50.258Z,100.00
2019-05-28T01:05:19.721Z,100.00
2019-05-28T01:07:50.820Z,100.00
2019-05-28T01:10:21.802Z,100.00
2019-05-28T01:12:51.327Z,100.00
2019-05-28T01:15:20.851Z,100.00
2019-05-28T01:17:50.338Z,100.00
2019-05-28T01:20:20.127Z,100.00
2019-05-28T01:22:49.568Z,100.00
2019-05-28T01:25:19.128Z,100.00
2019-05-28T01:27:48.568Z,100.00
2019-05-28T01:30:18.251Z,100.00
2019-05-28T01:32:49.373Z,100.00
2019-05-28T01:35:18.807Z,100.00
2019-05-28T01:37:48.245Z,100.00
2019-05-28T01:40:18.584Z,100.00
2019-05-28T01:42:49.743Z,100.00
2019-05-28T01:45:19.816Z,100.00
2019-05-28T01:47:49.176Z,100.00
2019-05-28T01:50:18.689Z,100.00
2019-05-28T01:52:48.093Z,100.00
2019-05-28T01:55:17.793Z,100.00
2019-05-28T01:57:47.332Z,100.00
2019-05-28T02:00:17.813Z,100.00
2019-05-28T02:02:47.297Z,100.00
2019-05-28T02:05:17.135Z,100.00
2019-05-28T02:07:46.567Z,100.00
2019-05-28T02:10:18.002Z,100.00
2019-05-28T02:12:47.408Z,100.00
2019-05-28T02:15:16.931Z,100.00
2019-05-28T02:17:46.708Z,100.00
2019-05-28T02:20:16.244Z,100.00
2019-05-28T02:22:45.673Z,100.00
2019-05-28T02:25:15.690Z,100.00
2019-05-28T02:27:45.478Z,100.00
2019-05-28T02:30:16.864Z,100.00
2019-05-28T02:32:46.308Z,100.00
2019-05-28T02:35:16.375Z,100.00
2019-05-28T02:37:45.851Z,100.00
2019-05-28T02:40:15.932Z,100.00
2019-05-28T02:42:45.537Z,100.00
2019-05-28T02:45:15.405Z,100.00
2019-05-28T02:47:44.983Z,100.00
2019-05-28T02:50:15.271Z,100.00
2019-05-28T02:52:45.337Z,100.00
2019-05-28T02:55:16.081Z,100.00
2019-05-28T02:57:47.811Z,100.00
2019-05-28T03:00:19.836Z,100.00
2019-05-28T03:02:49.994Z,100.00
2019-05-28T03:05:19.468Z,100.00
2019-05-28T03:07:50.829Z,100.00
2019-05-28T03:11:00.142Z,100.00
2019-05-28T03:13:06.559Z,100.00
2019-05-28T03:15:39.062Z,100.00
2019-05-28T03:18:10.840Z,100.00
2019-05-28T03:20:42.914Z,100.00
2019-05-28T03:23:14.602Z,100.00
2019-05-28T03:25:44.111Z,100.00
2019-05-28T03:28:15.094Z,100.00
2019-05-28T03:30:44.550Z,100.00
2019-05-28T03:33:14.001Z,100.00
2019-05-28T03:35:45.188Z,100.00
2019-05-28T03:38:16.719Z,100.00
2019-05-28T03:40:47.838Z,100.00
2019-05-28T03:43:17.642Z,100.00
2019-05-28T03:45:47.138Z,100.00
2019-05-28T03:48:16.649Z,100.00
2019-05-28T03:50:46.091Z,100.00
2019-05-28T03:53:15.672Z,100.00
2019-05-28T03:55:45.254Z,100.00
2019-05-28T03:58:14.786Z,100.00
2019-05-28T04:00:44.274Z,100.00
2019-05-28T04:03:13.794Z,100.00
2019-05-28T04:05:43.205Z,100.00
2019-05-28T04:08:12.741Z,100.00
2019-05-28T04:10:42.163Z,100.00
2019-05-28T04:13:11.791Z,100.00
2019-05-28T04:15:41.381Z,100.00
2019-05-28T04:18:11.296Z,100.00
2019-05-28T04:20:40.713Z,100.00
2019-05-28T04:23:15.063Z,100.00
2019-05-28T04:25:45.910Z,100.00
2019-05-28T04:28:15.607Z,100.00
2019-05-28T04:30:45.049Z,100.00
2019-05-28T04:33:14.576Z,100.00
2019-05-28T04:35:44.058Z,100.00
2019-05-28T04:38:14.178Z,100.00
2019-05-28T04:40:43.609Z,100.00
2019-05-28T04:43:13.041Z,100.00
2019-05-28T04:45:42.536Z,100.00
2019-05-28T04:48:13.379Z,100.00
2019-05-28T04:50:42.793Z,100.00
2019-05-28T04:53:12.323Z,100.00
2019-05-28T04:55:43.277Z,100.00
2019-05-28T04:58:12.726Z,100.00
2019-05-28T05:00:42.128Z,100.00
2019-05-28T05:03:11.656Z,100.00
2019-05-28T05:05:41.141Z,100.00
2019-05-28T05:08:10.579Z,100.00
2019-05-28T05:10:39.989Z,100.00
2019-05-28T05:13:11.100Z,100.00
2019-05-28T05:15:40.492Z,99.41
2019-05-28T05:18:09.942Z,97.08
2019-05-28T05:20:39.345Z,96.41
2019-05-28T05:23:08.932Z,97.53
2019-05-28T05:25:38.331Z,97.07
2019-05-28T05:28:07.767Z,96.20
2019-05-28T05:30:40.418Z,92.42
2019-05-28T05:33:19.925Z,90.92
2019-05-28T05:35:42.532Z,89.96
2019-05-28T05:38:12.005Z,88.79
2019-05-28T05:40:41.430Z,90.03
2019-05-28T05:43:11.144Z,88.46
2019-05-28T05:45:40.550Z,87.18
2019-05-28T05:48:09.981Z,87.94
2019-05-28T05:50:39.518Z,88.78
2019-05-28T05:53:08.966Z,90.40
2019-05-28T05:55:38.642Z,88.54
2019-05-28T05:58:09.553Z,86.28
2019-05-28T06:00:38.999Z,86.97
2019-05-28T06:03:08.700Z,88.61
2019-05-28T06:05:38.141Z,85.04
2019-05-28T06:08:07.648Z,82.50
2019-05-28T06:10:37.217Z,81.37
2019-05-28T06:13:06.651Z,79.67
2019-05-28T06:15:36.084Z,81.46
2019-05-28T06:18:05.584Z,79.04
2019-05-28T06:20:35.017Z,79.73
2019-05-28T06:23:04.504Z,79.46
2019-05-28T06:25:34.017Z,78.29
2019-05-28T06:28:03.782Z,76.46
2019-05-28T06:30:33.235Z,76.81
2019-05-28T06:33:02.652Z,77.13
2019-05-28T06:35:32.202Z,78.19
2019-05-28T06:38:01.596Z,78.51
2019-05-28T06:40:31.052Z,78.15
2019-05-28T06:43:00.447Z,78.36
2019-05-28T06:45:30.598Z,77.39
2019-05-28T06:48:00.145Z,76.15
2019-05-28T06:50:29.740Z,75.80
2019-05-28T06:52:59.225Z,74.62
2019-05-28T06:55:30.182Z,75.76
2019-05-28T06:57:59.947Z,75.42
2019-05-28T07:00:29.596Z,74.15
2019-05-28T07:02:59.022Z,74.84
2019-05-28T07:05:28.705Z,75.47
2019-05-28T07:07:58.155Z,76.22
2019-05-28T07:10:27.657Z,71.96
2019-05-28T07:12:57.208Z,73.66
2019-05-28T07:15:26.761Z,70.12
2019-05-28T07:17:59.601Z,71.08
2019-05-28T07:20:28.308Z,71.17
2019-05-28T07:22:57.756Z,68.88
2019-05-28T07:25:27.520Z,68.72
2019-05-28T07:28:10.329Z,71.52
2019-05-28T07:30:28.079Z,69.43
2019-05-28T07:32:57.772Z,70.30
2019-05-28T07:35:27.289Z,65.66
2019-05-28T07:37:56.805Z,65.47
2019-05-28T07:40:31.453Z,65.90
2019-05-28T07:42:57.568Z,67.73
2019-05-28T07:45:27.161Z,65.36
2019-05-28T07:47:58.307Z,64.00
2019-05-28T07:50:27.767Z,65.46
2019-05-28T07:52:57.891Z,65.04
2019-05-28T07:55:27.339Z,61.45
2019-05-28T07:57:56.771Z,63.26
2019-05-28T08:00:29.440Z,64.01
2019-05-28T08:02:58.866Z,62.73
2019-05-28T08:05:28.317Z,65.42
2019-05-28T08:07:58.056Z,64.50
2019-05-28T08:10:29.461Z,65.78
2019-05-28T08:12:59.626Z,64.67
2019-05-28T08:15:29.223Z,61.71
2019-05-28T08:17:58.618Z,60.46
2019-05-28T08:20:28.299Z,64.00
2019-05-28T08:23:00.740Z,64.25
2019-05-28T08:25:46.066Z,61.27
2019-05-28T08:28:18.783Z,61.57
2019-05-28T08:30:32.499Z,56.96
2019-05-28T08:33:01.936Z,58.11
2019-05-28T08:35:31.347Z,59.95
2019-05-28T08:38:00.895Z,60.68
2019-05-28T08:40:30.299Z,57.95
2019-05-28T08:42:59.857Z,55.48
2019-05-28T08:45:29.310Z,57.26
2019-05-28T08:48:00.386Z,57.35
2019-05-28T08:50:34.320Z,58.08
2019-05-28T08:53:00.983Z,57.25
2019-05-28T08:55:30.405Z,60.70
2019-05-28T08:58:01.663Z,59.58
2019-05-28T09:00:39.612Z,57.22
2019-05-28T09:03:09.376Z,60.35
2019-05-28T09:05:39.017Z,56.28
2019-05-28T09:08:08.662Z,57.08
2019-05-28T09:10:38.192Z,56.09
2019-05-28T09:13:07.692Z,57.50
2019-05-28T09:15:40.089Z,54.07
2019-05-28T09:18:09.543Z,55.26
2019-05-28T09:20:39.308Z,56.38
2019-05-28T09:23:08.789Z,53.45
2019-05-28T09:25:38.268Z,52.90
2019-05-28T09:28:07.646Z,53.41
2019-05-28T09:30:37.292Z,53.43
2019-05-28T09:33:06.729Z,51.77
2019-05-28T09:35:44.804Z,53.44
2019-05-28T09:38:09.629Z,53.23
2019-05-28T09:40:49.991Z,54.03
2019-05-28T09:43:10.205Z,54.88
2019-05-28T09:45:39.710Z,56.55
2019-05-28T09:48:09.133Z,54.07
2019-05-28T09:50:38.772Z,56.65
2019-05-28T09:53:08.192Z,55.89
2019-05-28T09:55:38.480Z,53.82
2019-05-28T09:58:08.134Z,54.65
2019-05-28T10:00:56.610Z,56.04
2019-05-28T10:03:11.893Z,57.53
2019-05-28T10:05:56.799Z,56.85
2019-05-28T10:08:12.439Z,58.24
2019-05-28T10:10:41.984Z,58.81
2019-05-28T10:13:11.441Z,59.02
2019-05-28T10:15:40.913Z,59.07
2019-05-28T10:18:10.390Z,59.35
2019-05-28T10:20:39.787Z,59.96
2019-05-28T10:23:09.279Z,60.23
2019-05-28T10:25:38.682Z,59.34
2019-05-28T10:28:08.148Z,59.67
2019-05-28T10:30:37.634Z,59.82
2019-05-28T10:33:07.196Z,58.67
2019-05-28T10:35:36.810Z,55.60
2019-05-28T10:38:06.344Z,53.83
2019-05-28T10:40:35.879Z,54.41
2019-05-28T10:43:06.068Z,54.90
2019-05-28T10:45:37.167Z,51.58
2019-05-28T10:48:06.746Z,51.69
2019-05-28T10:50:36.271Z,52.33
2019-05-28T10:53:06.890Z,51.49
2019-05-28T10:55:36.321Z,50.34
2019-05-28T10:58:05.724Z,49.48
2019-05-28T11:00:35.505Z,49.51
2019-05-28T11:03:05.242Z,47.27
2019-05-28T11:05:36.496Z,49.85
2019-05-28T11:08:06.076Z,50.46
2019-05-28T11:10:35.995Z,52.17
2019-05-28T11:13:05.843Z,49.61
2019-05-28T11:15:35.303Z,50.29
2019-05-28T11:18:05.344Z,52.33
2019-05-28T11:20:35.047Z,49.27
2019-05-28T11:23:04.541Z,49.55
2019-05-28T11:25:34.057Z,53.02
2019-05-28T11:28:03.658Z,52.10
2019-05-28T11:30:33.171Z,50.93
2019-05-28T11:33:02.622Z,48.86
2019-05-28T11:35:32.065Z,48.45
2019-05-28T11:38:01.736Z,49.75
2019-05-28T11:40:31.256Z,50.58
2019-05-28T11:43:02.174Z,49.08
2019-05-28T11:45:31.641Z,49.47
2019-05-28T11:48:01.297Z,51.39
2019-05-28T11:50:30.830Z,52.21
2019-05-28T11:53:00.352Z,50.92
2019-05-28T11:55:29.837Z,51.66
2019-05-28T11:57:59.281Z,52.13
2019-05-28T12:00:29.249Z,50.87
2019-05-28T12:02:58.696Z,48.13
2019-05-28T12:05:28.682Z,45.70
2019-05-28T12:07:58.191Z,48.27
2019-05-28T12:10:28.534Z,49.50
2019-05-28T12:12:59.847Z,50.61
2019-05-28T12:15:29.389Z,49.27
2019-05-28T12:17:59.106Z,48.19
2019-05-28T12:20:29.151Z,48.98
2019-05-28T12:23:10.643Z,49.33
2019-05-28T12:25:29.954Z,51.38
2019-05-28T12:27:59.398Z,50.66
2019-05-28T12:30:29.245Z,49.75
2019-05-28T12:32:58.702Z,52.55
2019-05-28T12:35:30.195Z,51.87
2019-05-28T12:38:00.871Z,51.51
2019-05-28T12:40:46.295Z,51.43
2019-05-28T12:43:01.637Z,50.78
2019-05-28T12:45:35.744Z,51.59
2019-05-28T12:48:11.115Z,50.23
2019-05-28T12:50:34.076Z,50.07
2019-05-28T12:53:03.603Z,51.61
2019-05-28T12:55:33.173Z,52.14
2019-05-28T12:58:02.689Z,51.68
2019-05-28T13:00:32.578Z,51.73
2019-05-28T13:03:02.029Z,52.04
2019-05-28T13:05:32.025Z,54.10
2019-05-28T13:08:09.085Z,53.59
2019-05-28T13:10:32.634Z,52.81
2019-05-28T13:13:02.138Z,53.21
2019-05-28T13:15:33.086Z,52.99
2019-05-28T13:18:02.504Z,52.64
2019-05-28T13:20:32.224Z,54.35
2019-05-28T13:23:01.641Z,53.60
2019-05-28T13:25:31.425Z,50.70
2019-05-28T13:28:02.366Z,50.67
2019-05-28T13:30:31.837Z,51.18
2019-05-28T13:33:01.311Z,51.37
2019-05-28T13:35:30.774Z,52.41
2019-05-28T13:38:00.193Z,53.55
2019-05-28T13:40:29.712Z,53.90
2019-05-28T13:42:59.194Z,51.80
2019-05-28T13:45:28.628Z,53.61
2019-05-28T13:47:58.045Z,52.71
2019-05-28T13:50:29.590Z,53.36
2019-05-28T13:52:59.887Z,53.27
2019-05-28T13:55:29.395Z,53.69
2019-05-28T13:57:58.981Z,54.75
2019-05-28T14:00:29.252Z,53.24
2019-05-28T14:02:58.953Z,56.42
2019-05-28T14:05:28.456Z,56.65
2019-05-28T14:07:57.896Z,54.80
2019-05-28T14:10:28.010Z,55.91
2019-05-28T14:12:59.010Z,56.10
2019-05-28T14:15:28.459Z,57.39
2019-05-28T14:17:57.977Z,56.76
2019-05-28T14:20:27.750Z,55.17
2019-05-28T14:22:57.160Z,55.06
2019-05-28T14:25:26.677Z,55.72
2019-05-28T14:27:56.102Z,56.50
2019-05-28T14:30:26.194Z,56.09
2019-05-28T14:32:56.440Z,55.98
2019-05-28T14:35:25.951Z,56.41
2019-05-28T14:37:55.429Z,55.94
2019-05-28T14:40:25.296Z,56.22
2019-05-28T14:42:54.758Z,56.79
2019-05-28T14:45:25.239Z,56.41
2019-05-28T14:47:55.217Z,56.72
2019-05-28T14:50:27.324Z,55.29
2019-05-28T14:52:57.490Z,52.51
2019-05-28T14:55:27.124Z,50.07
2019-05-28T14:57:56.597Z,49.34
2019-05-28T15:00:26.198Z,50.13
2019-05-28T15:02:57.236Z,50.13
2019-05-28T15:05:28.129Z,50.19
2019-05-28T15:07:57.685Z,51.36
2019-05-28T15:10:27.262Z,52.28
2019-05-28T15:12:56.751Z,51.33
2019-05-28T15:15:35.766Z,52.99
2019-05-28T15:17:57.467Z,49.39
2019-05-28T15:20:27.015Z,50.14
2019-05-28T15:22:56.458Z,49.09
2019-05-28T15:25:25.945Z,47.59
2019-05-28T15:27:55.472Z,47.64
2019-05-28T15:30:25.076Z,50.10
2019-05-28T15:32:54.555Z,48.59
2019-05-28T15:35:24.614Z,46.92
2019-05-28T15:37:54.078Z,47.82
2019-05-28T15:40:25.075Z,51.77
2019-05-28T15:43:05.572Z,52.02
2019-05-28T15:45:25.981Z,52.12
2019-05-28T15:47:55.516Z,53.65
2019-05-28T15:50:25.155Z,53.15
2019-05-28T15:52:58.787Z,50.51
2019-05-28T15:55:27.223Z,48.98
2019-05-28T15:57:56.667Z,48.21
2019-05-28T16:00:26.331Z,45.74
2019-05-28T16:02:56.119Z,46.33
2019-05-28T16:05:25.686Z,45.15
2019-05-28T16:07:55.160Z,43.02
2019-05-28T16:10:24.603Z,43.89
2019-05-28T16:12:54.056Z,45.48
2019-05-28T16:15:23.635Z,44.45
2019-05-28T16:17:53.119Z,44.57
2019-05-28T16:20:22.664Z,44.97
2019-05-28T16:22:52.129Z,44.43
2019-05-28T16:25:21.782Z,44.53
2019-05-28T16:27:51.346Z,44.67
2019-05-28T16:30:22.435Z,44.65
2019-05-28T16:32:51.893Z,45.91
2019-05-28T16:35:21.354Z,47.19
2019-05-28T16:37:50.799Z,48.02
2019-05-28T16:40:20.457Z,48.77
2019-05-28T16:42:49.909Z,49.30
2019-05-28T16:45:19.562Z,50.79
2019-05-28T16:47:49.025Z,52.27
2019-05-28T16:50:18.773Z,53.12
2019-05-28T16:52:48.359Z,51.41
2019-05-28T16:55:18.445Z,50.32
2019-05-28T16:57:48.080Z,48.67
2019-05-28T17:00:19.133Z,47.62
2019-05-28T17:02:48.607Z,49.75
2019-05-28T17:05:18.255Z,47.38
2019-05-28T17:07:47.909Z,46.05
2019-05-28T17:10:31.412Z,48.14
2019-05-28T17:12:49.119Z,50.96
2019-05-28T17:15:19.379Z,49.94
2019-05-28T17:17:48.824Z,48.45
2019-05-28T17:20:19.588Z,48.51
2019-05-28T17:22:49.284Z,47.65
2019-05-28T17:25:19.029Z,47.57
2019-05-28T17:27:48.499Z,47.17
2019-05-28T17:30:23.793Z,49.73
2019-05-28T17:32:49.282Z,49.32
2019-05-28T17:35:18.964Z,51.04
2019-05-28T17:37:48.487Z,51.73
2019-05-28T17:40:21.752Z,49.45
2019-05-28T17:42:51.372Z,48.21
2019-05-28T17:45:21.173Z,47.89
2019-05-28T17:47:50.601Z,45.90
2019-05-28T17:50:20.243Z,45.56
2019-05-28T17:52:51.540Z,47.58
2019-05-28T17:55:21.194Z,48.27
2019-05-28T17:57:50.923Z,48.81
2019-05-28T18:00:20.838Z,48.93
2019-05-28T18:02:50.251Z,49.46
2019-05-28T18:05:21.276Z,49.34
2019-05-28T18:07:53.829Z,50.17
2019-05-28T18:10:23.595Z,49.00
2019-05-28T18:12:53.018Z,50.37
2019-05-28T18:15:22.526Z,50.24
2019-05-28T18:17:52.038Z,51.63
2019-05-28T18:20:21.555Z,51.38
2019-05-28T18:22:51.081Z,52.55
2019-05-28T18:25:20.911Z,52.37
2019-05-28T18:27:50.373Z,52.99
2019-05-28T18:30:20.130Z,54.83
2019-05-28T18:32:49.716Z,56.80
2019-05-28T18:35:20.219Z,56.92
2019-05-28T18:37:49.805Z,56.43
2019-05-28T18:40:20.202Z,57.63
2019-05-28T18:42:51.262Z,58.49
2019-05-28T18:45:20.789Z,59.12
2019-05-28T18:47:50.205Z,59.52
2019-05-28T18:50:19.726Z,59.60
2019-05-28T18:52:49.194Z,59.72
2019-05-28T18:55:23.446Z,60.85
2019-05-28T18:57:51.616Z,61.35
2019-05-28T19:00:21.208Z,62.18
2019-05-28T19:02:50.618Z,61.58
2019-05-28T19:05:20.209Z,62.33
2019-05-28T19:07:49.708Z,63.54
2019-05-28T19:10:19.284Z,63.04
2019-05-28T19:12:48.693Z,64.22
2019-05-28T19:15:18.284Z,63.64
2019-05-28T19:17:47.770Z,63.78
2019-05-28T19:20:17.462Z,64.85
2019-05-28T19:22:46.897Z,65.12
2019-05-28T19:25:16.683Z,64.79
2019-05-28T19:27:46.088Z,65.22
2019-05-28T19:30:17.355Z,66.93
2019-05-28T19:32:47.523Z,66.35
2019-05-28T19:35:18.615Z,66.77
2019-05-28T19:37:48.173Z,66.30
2019-05-28T19:40:20.683Z,67.51
2019-05-28T19:42:50.098Z,67.58
2019-05-28T19:45:19.622Z,67.57
2019-05-28T19:47:49.950Z,68.11
2019-05-28T19:50:19.478Z,67.49
2019-05-28T19:52:48.869Z,68.07
2019-05-28T19:55:18.648Z,68.08
2019-05-28T19:57:48.107Z,67.83
2019-05-28T20:00:18.064Z,69.04
2019-05-28T20:02:47.468Z,69.04
2019-05-28T20:05:17.365Z,68.94
2019-05-28T20:07:46.822Z,70.11
2019-05-28T20:10:16.693Z,70.03
2019-05-28T20:12:47.746Z,70.20
2019-05-28T20:15:20.986Z,69.96
2019-05-28T20:17:50.291Z,69.97
2019-05-28T20:20:21.744Z,69.98
2019-05-28T20:22:51.950Z,70.65
2019-05-28T20:25:21.675Z,70.64
2019-05-28T20:27:51.874Z,70.26
2019-05-28T20:30:21.921Z,71.44
2019-05-28T20:32:54.876Z,72.00
2019-05-28T20:35:22.823Z,72.64
2019-05-28T20:37:52.236Z,72.22
2019-05-28T20:40:22.323Z,72.93
2019-05-28T20:42:51.808Z,74.34
2019-05-28T20:45:21.430Z,74.36
2019-05-28T20:47:50.843Z,74.53
2019-05-28T20:50:20.403Z,74.61
2019-05-28T20:52:49.852Z,75.29
2019-05-28T20:55:19.534Z,75.95
2019-05-28T20:57:49.200Z,76.12
2019-05-28T21:00:19.059Z,76.48
2019-05-28T21:02:49.496Z,76.84
2019-05-28T21:05:19.159Z,76.51
2019-05-28T21:07:49.974Z,76.64
2019-05-28T21:10:20.599Z,76.98
2019-05-28T21:12:50.620Z,77.39
2019-05-28T21:15:20.228Z,77.13
2019-05-28T21:17:51.062Z,77.35
2019-05-28T21:20:20.674Z,77.93
2019-05-28T21:22:50.176Z,77.57
2019-05-28T21:25:19.667Z,77.86
2019-05-28T21:27:49.969Z,77.71
2019-05-28T21:30:20.051Z,77.88
2019-05-28T21:32:50.648Z,78.70
2019-05-28T21:35:20.232Z,80.05
2019-05-28T21:37:51.001Z,79.50
2019-05-28T21:40:21.133Z,79.15
2019-05-28T21:43:00.250Z,79.15
2019-05-28T21:45:22.490Z,78.91
2019-05-28T21:47:52.438Z,78.86
2019-05-28T21:50:22.191Z,78.87
2019-05-28T21:52:52.859Z,78.89
2019-05-28T21:55:22.421Z,79.39
2019-05-28T21:57:51.861Z,79.41
2019-05-28T22:00:44.190Z,79.64
2019-05-28T22:03:13.772Z,80.10
2019-05-28T22:05:43.224Z,80.58
2019-05-28T22:08:12.997Z,80.89
2019-05-28T22:10:42.449Z,80.60
2019-05-28T22:13:21.527Z,81.35
2019-05-28T22:15:43.184Z,81.88
2019-05-28T22:18:12.620Z,82.26
2019-05-28T22:20:42.060Z,82.49
2019-05-28T22:23:11.648Z,82.71
2019-05-28T22:25:41.229Z,82.96
2019-05-28T22:28:10.731Z,82.97
2019-05-28T22:30:40.134Z,83.17
2019-05-28T22:33:09.660Z,83.12
2019-05-28T22:35:39.141Z,83.77
2019-05-28T22:38:08.639Z,83.83
2019-05-28T22:40:38.109Z,84.25
2019-05-28T22:43:07.527Z,84.95
2019-05-28T22:45:41.773Z,85.11
2019-05-28T22:48:15.319Z,85.34
2019-05-28T22:50:39.450Z,85.04
2019-05-28T22:53:08.899Z,85.64
2019-05-28T22:55:38.372Z,85.67
2019-05-28T22:58:08.663Z,85.67
2019-05-28T23:00:38.269Z,86.70
2019-05-28T23:03:09.061Z,86.80
2019-05-28T23:05:39.169Z,86.97
2019-05-28T23:08:09.886Z,87.12
2019-05-28T23:10:39.541Z,87.13
2019-05-28T23:13:09.192Z,87.38
2019-05-28T23:15:38.663Z,88.03
2019-05-28T23:18:09.279Z,88.29
2019-05-28T23:20:39.333Z,88.27
2019-05-28T23:23:09.389Z,88.19
2019-05-28T23:25:38.863Z,89.15
2019-05-28T23:28:09.699Z,88.78
2019-05-28T23:30:39.366Z,89.11
2019-05-28T23:33:10.404Z,89.31
2019-05-28T23:35:40.004Z,89.76
2019-05-28T23:38:09.428Z,89.89
2019-05-28T23:40:38.961Z,90.01
2019-05-28T23:43:09.529Z,90.13
2019-05-28T23:45:39.059Z,89.84
2019-05-28T23:48:13.292Z,89.47
2019-05-28T23:50:39.834Z,89.10
2019-05-28T23:53:09.634Z,89.28
2019-05-28T23:55:39.332Z,89.22
2019-05-28T23:58:10.299Z,89.53
